createdAt,value
2018-05-12T00:00:40.218Z,1010.16
2018-05-12T00:02:33.438Z,1010.19
2018-05-12T00:03:32.605Z,1010.18
2018-05-12T00:05:27.176Z,1010.14
2018-05-12T00:06:26.036Z,1010.15
2018-05-12T00:08:19.308Z,1010.10
2018-05-12T00:09:18.862Z,1010.12
2018-05-12T00:11:12.590Z,1010.14
2018-05-12T00:12:12.178Z,1010.14
2018-05-12T00:14:05.756Z,1010.13
2018-05-12T00:15:05.642Z,1010.16
2018-05-12T00:17:00.440Z,1010.20
2018-05-12T00:17:58.958Z,1010.15
2018-05-12T00:19:52.778Z,1010.17
2018-05-12T00:20:52.405Z,1010.18
2018-05-12T00:22:45.639Z,1010.18
2018-05-12T00:23:45.166Z,1010.21
2018-05-12T00:25:43.376Z,1010.18
2018-05-12T00:26:43.040Z,1010.18
2018-05-12T00:28:36.884Z,1010.18
2018-05-12T00:29:37.260Z,1010.16
2018-05-12T00:31:30.210Z,1010.19
2018-05-12T00:32:30.227Z,1010.17
2018-05-12T00:34:24.645Z,1010.16
2018-05-12T00:35:23.216Z,1010.15
2018-05-12T00:37:16.891Z,1010.12
2018-05-12T00:38:16.493Z,1010.13
2018-05-12T00:40:10.782Z,1010.18
2018-05-12T00:41:09.862Z,1010.12
2018-05-12T00:43:03.756Z,1010.13
2018-05-12T00:44:03.647Z,1010.13
2018-05-12T00:45:57.659Z,1010.09
2018-05-12T00:46:56.728Z,1010.09
2018-05-12T00:48:50.882Z,1010.10
2018-05-12T00:49:49.976Z,1010.07
2018-05-12T00:51:43.755Z,1010.07
2018-05-12T00:52:43.777Z,1010.08
2018-05-12T00:54:37.673Z,1010.06
2018-05-12T00:55:36.802Z,1010.10
2018-05-12T00:57:30.498Z,1010.08
2018-05-12T00:58:30.375Z,1010.07
2018-05-12T01:00:23.905Z,1010.07
2018-05-12T01:01:24.017Z,1010.05
2018-05-12T01:03:17.393Z,1010.05
2018-05-12T01:04:16.872Z,1010.05
2018-05-12T01:06:12.125Z,1009.99
2018-05-12T01:07:10.606Z,1009.98
2018-05-12T01:09:03.049Z,1009.93
2018-05-12T01:10:03.037Z,1009.97
2018-05-12T01:11:56.461Z,1009.92
2018-05-12T01:12:56.363Z,1009.94
2018-05-12T01:14:50.321Z,1009.96
2018-05-12T01:15:50.551Z,1009.93
2018-05-12T01:17:42.999Z,1009.95
2018-05-12T01:18:42.727Z,1009.94
2018-05-12T01:20:35.982Z,1009.93
2018-05-12T01:21:35.659Z,1009.90
2018-05-12T01:23:29.480Z,1009.84
2018-05-12T01:24:29.139Z,1009.82
2018-05-12T01:26:22.513Z,1009.82
2018-05-12T01:27:22.727Z,1009.81
2018-05-12T01:29:16.073Z,1009.79
2018-05-12T01:30:15.877Z,1009.82
2018-05-12T01:32:09.300Z,1009.79
2018-05-12T01:33:09.794Z,1009.82
2018-05-12T01:35:02.283Z,1009.84
2018-05-12T01:36:02.092Z,1009.87
2018-05-12T01:37:55.471Z,1009.85
2018-05-12T01:38:55.455Z,1009.85
2018-05-12T01:40:48.518Z,1009.87
2018-05-12T01:41:48.325Z,1009.82
2018-05-12T01:43:41.883Z,1009.84
2018-05-12T01:44:41.695Z,1009.83
2018-05-12T01:46:34.804Z,1009.83
2018-05-12T01:47:35.139Z,1009.84
2018-05-12T01:49:27.968Z,1009.90
2018-05-12T01:50:27.924Z,1009.85
2018-05-12T01:52:21.564Z,1009.88
2018-05-12T01:53:21.284Z,1009.83
2018-05-12T01:55:15.966Z,1009.87
2018-05-12T01:56:14.648Z,1009.88
2018-05-12T01:58:09.056Z,1009.90
2018-05-12T01:59:09.264Z,1009.89
2018-05-12T02:01:02.622Z,1009.89
2018-05-12T02:02:02.379Z,1009.91
2018-05-12T02:03:55.416Z,1009.86
2018-05-12T02:04:55.241Z,1009.86
2018-05-12T02:06:48.641Z,1009.87
2018-05-12T02:07:48.607Z,1009.86
2018-05-12T02:09:42.570Z,1009.83
2018-05-12T02:10:41.974Z,1009.86
2018-05-12T02:12:35.279Z,1009.84
2018-05-12T02:13:35.913Z,1009.87
2018-05-12T02:15:28.722Z,1009.87
2018-05-12T02:16:28.298Z,1009.86
2018-05-12T02:18:21.691Z,1009.87
2018-05-12T02:19:21.646Z,1009.87
2018-05-12T02:21:15.072Z,1009.84
2018-05-12T02:22:15.028Z,1009.83
2018-05-12T02:24:08.753Z,1009.92
2018-05-12T02:25:08.398Z,1009.86
2018-05-12T02:27:01.775Z,1009.89
2018-05-12T02:28:01.743Z,1009.86
2018-05-12T02:29:54.764Z,1009.84
2018-05-12T02:30:54.638Z,1009.83
2018-05-12T02:32:47.769Z,1009.83
2018-05-12T02:33:47.482Z,1009.79
2018-05-12T02:35:40.391Z,1009.81
2018-05-12T02:36:40.348Z,1009.79
2018-05-12T02:38:33.439Z,1009.82
2018-05-12T02:39:33.213Z,1009.81
2018-05-12T02:41:26.717Z,1009.83
2018-05-12T02:42:26.583Z,1009.83
2018-05-12T02:44:20.541Z,1009.80
2018-05-12T02:45:19.952Z,1009.83
2018-05-12T02:47:13.333Z,1009.81
2018-05-12T02:48:13.303Z,1009.77
2018-05-12T02:50:06.773Z,1009.78
2018-05-12T02:51:06.665Z,1009.81
2018-05-12T02:53:00.116Z,1009.76
2018-05-12T02:54:00.031Z,1009.80
2018-05-12T02:55:53.406Z,1009.83
2018-05-12T02:56:53.390Z,1009.83
2018-05-12T02:58:46.812Z,1009.86
2018-05-12T02:59:46.757Z,1009.84
2018-05-12T03:01:39.774Z,1009.87
2018-05-12T03:02:39.616Z,1009.82
2018-05-12T03:04:32.513Z,1009.80
2018-05-12T03:05:32.486Z,1009.83
2018-05-12T03:07:25.420Z,1009.84
2018-05-12T03:08:25.349Z,1009.81
2018-05-12T03:10:20.002Z,1009.83
2018-05-12T03:11:19.715Z,1009.79
2018-05-12T03:13:13.087Z,1009.81
2018-05-12T03:14:13.070Z,1009.77
2018-05-12T03:16:06.647Z,1009.82
2018-05-12T03:17:06.444Z,1009.82
2018-05-12T03:18:59.330Z,1009.82
2018-05-12T03:19:59.300Z,1009.80
2018-05-12T03:21:52.694Z,1009.79
2018-05-12T03:22:52.653Z,1009.78
2018-05-12T03:24:46.270Z,1009.78
2018-05-12T03:25:46.025Z,1009.83
2018-05-12T03:27:39.156Z,1009.80
2018-05-12T03:28:38.897Z,1009.84
2018-05-12T03:30:31.982Z,1009.85
2018-05-12T03:31:31.756Z,1009.87
2018-05-12T03:33:25.242Z,1009.86
2018-05-12T03:34:25.124Z,1009.95
2018-05-12T03:36:20.065Z,1009.96
2018-05-12T03:37:18.479Z,1009.93
2018-05-12T03:39:13.409Z,1009.88
2018-05-12T03:40:11.871Z,1009.91
2018-05-12T03:42:06.613Z,1009.86
2018-05-12T03:43:06.202Z,1009.87
2018-05-12T03:44:59.619Z,1009.92
2018-05-12T03:45:59.837Z,1009.94
2018-05-12T03:47:52.999Z,1009.99
2018-05-12T03:48:52.452Z,1009.96
2018-05-12T03:50:46.161Z,1009.97
2018-05-12T03:51:45.805Z,1009.98
2018-05-12T03:53:40.607Z,1009.99
2018-05-12T03:54:40.772Z,1010.00
2018-05-12T03:56:33.960Z,1009.99
2018-05-12T03:57:33.537Z,1009.97
2018-05-12T03:59:26.944Z,1010.03
2018-05-12T04:00:26.891Z,1010.03
2018-05-12T04:02:20.340Z,1010.05
2018-05-12T04:03:20.281Z,1010.08
2018-05-12T04:05:14.079Z,1010.09
2018-05-12T04:06:13.652Z,1010.09
2018-05-12T04:08:06.745Z,1010.04
2018-05-12T04:09:06.539Z,1010.03
2018-05-12T04:10:59.474Z,1010.05
2018-05-12T04:11:59.381Z,1010.06
2018-05-12T04:13:54.004Z,1010.12
2018-05-12T04:14:53.763Z,1010.11
2018-05-12T04:16:48.107Z,1010.09
2018-05-12T04:17:48.079Z,1010.09
2018-05-12T04:19:41.298Z,1010.04
2018-05-12T04:20:40.960Z,1010.05
2018-05-12T04:22:34.909Z,1010.08
2018-05-12T04:23:34.863Z,1010.06
2018-05-12T04:25:28.279Z,1010.08
2018-05-12T04:26:28.823Z,1010.06
2018-05-12T04:28:21.176Z,1010.09
2018-05-12T04:29:21.673Z,1010.09
2018-05-12T04:31:14.006Z,1010.13
2018-05-12T04:32:13.982Z,1010.12
2018-05-12T04:34:06.857Z,1010.13
2018-05-12T04:35:06.839Z,1010.09
2018-05-12T04:37:00.247Z,1010.07
2018-05-12T04:38:00.201Z,1010.08
2018-05-12T04:39:53.108Z,1010.10
2018-05-12T04:40:53.091Z,1010.12
2018-05-12T04:42:46.628Z,1010.11
2018-05-12T04:43:46.437Z,1010.12
2018-05-12T04:45:39.966Z,1010.06
2018-05-12T04:46:39.796Z,1010.05
2018-05-12T04:48:34.479Z,1010.06
2018-05-12T04:49:33.513Z,1010.03
2018-05-12T04:51:26.391Z,1010.05
2018-05-12T04:52:26.372Z,1010.03
2018-05-12T04:54:19.414Z,1010.04
2018-05-12T04:55:19.237Z,1010.05
2018-05-12T04:57:12.818Z,1010.08
2018-05-12T04:58:12.607Z,1010.04
2018-05-12T05:00:06.353Z,1010.01
2018-05-12T05:01:05.969Z,1009.98
2018-05-12T05:02:59.662Z,1009.99
2018-05-12T05:03:59.324Z,1010.00
2018-05-12T05:05:53.566Z,1009.96
2018-05-12T05:06:53.278Z,1009.95
2018-05-12T05:08:48.056Z,1009.92
2018-05-12T05:09:48.018Z,1009.92
2018-05-12T05:11:41.376Z,1009.97
2018-05-12T05:12:41.351Z,1009.99
2018-05-12T05:14:34.722Z,1010.04
2018-05-12T05:15:34.703Z,1010.04
2018-05-12T05:17:28.662Z,1010.11
2018-05-12T05:18:28.684Z,1010.15
2018-05-12T05:20:21.542Z,1010.22
2018-05-12T05:21:21.382Z,1010.22
2018-05-12T05:23:14.780Z,1010.22
2018-05-12T05:24:14.823Z,1010.25
2018-05-12T05:26:08.190Z,1010.30
2018-05-12T05:27:08.476Z,1010.32
2018-05-12T05:29:01.530Z,1010.29
2018-05-12T05:30:01.199Z,1010.33
2018-05-12T05:31:54.852Z,1010.27
2018-05-12T05:32:54.552Z,1010.27
2018-05-12T05:34:47.836Z,1010.24
2018-05-12T05:35:47.445Z,1010.24
2018-05-12T05:37:40.775Z,1010.27
2018-05-12T05:38:40.390Z,1010.25
2018-05-12T05:40:34.226Z,1010.31
2018-05-12T05:41:34.169Z,1010.27
2018-05-12T05:43:27.495Z,1010.29
2018-05-12T05:44:27.524Z,1010.30
2018-05-12T05:46:20.885Z,1010.33
2018-05-12T05:47:20.763Z,1010.30
2018-05-12T05:49:15.193Z,1010.36
2018-05-12T05:50:15.228Z,1010.35
2018-05-12T05:52:10.211Z,1010.34
2018-05-12T05:53:09.512Z,1010.33
2018-05-12T05:55:03.515Z,1010.34
2018-05-12T05:56:03.489Z,1010.32
2018-05-12T05:57:56.756Z,1010.33
2018-05-12T05:58:56.018Z,1010.34
2018-05-12T06:00:49.400Z,1010.39
2018-05-12T06:01:49.305Z,1010.38
2018-05-12T06:03:44.302Z,1010.40
2018-05-12T06:04:43.732Z,1010.41
2018-05-12T06:06:38.691Z,1010.39
2018-05-12T06:07:38.076Z,1010.40
2018-05-12T06:09:31.023Z,1010.37
2018-05-12T06:10:30.960Z,1010.42
2018-05-12T06:12:24.437Z,1010.38
2018-05-12T06:13:24.379Z,1010.38
2018-05-12T06:15:16.884Z,1010.36
2018-05-12T06:16:16.854Z,1010.39
2018-05-12T06:18:10.974Z,1010.40
2018-05-12T06:19:10.597Z,1010.38
2018-05-12T06:21:03.141Z,1010.40
2018-05-12T06:22:03.128Z,1010.40
2018-05-12T06:23:56.039Z,1010.37
2018-05-12T06:24:56.027Z,1010.38
2018-05-12T06:26:49.159Z,1010.35
2018-05-12T06:27:48.994Z,1010.36
2018-05-12T06:29:41.841Z,1010.35
2018-05-12T06:30:41.803Z,1010.39
2018-05-12T06:32:35.199Z,1010.39
2018-05-12T06:33:35.244Z,1010.43
2018-05-12T06:35:28.092Z,1010.41
2018-05-12T06:36:28.104Z,1010.37
2018-05-12T06:38:21.373Z,1010.38
2018-05-12T06:39:21.271Z,1010.43
2018-05-12T06:41:14.718Z,1010.42
2018-05-12T06:42:14.772Z,1010.40
2018-05-12T06:44:08.276Z,1010.45
2018-05-12T06:45:09.161Z,1010.52
2018-05-12T06:47:00.724Z,1010.47
2018-05-12T06:48:00.338Z,1010.48
2018-05-12T06:49:54.113Z,1010.44
2018-05-12T06:50:54.037Z,1010.45
2018-05-12T06:52:47.256Z,1010.44
2018-05-12T06:53:47.505Z,1010.40
2018-05-12T06:55:42.176Z,1010.39
2018-05-12T06:56:41.857Z,1010.35
2018-05-12T06:58:34.956Z,1010.32
2018-05-12T06:59:34.521Z,1010.32
2018-05-12T07:01:27.926Z,1010.33
2018-05-12T07:02:27.899Z,1010.31
2018-05-12T07:04:21.315Z,1010.33
2018-05-12T07:05:21.203Z,1010.34
2018-05-12T07:07:14.590Z,1010.30
2018-05-12T07:08:14.600Z,1010.31
2018-05-12T07:10:08.068Z,1010.32
2018-05-12T07:11:07.494Z,1010.29
2018-05-12T07:13:00.401Z,1010.29
2018-05-12T07:14:00.358Z,1010.28
2018-05-12T07:15:53.199Z,1010.27
2018-05-12T07:16:53.258Z,1010.27
2018-05-12T07:18:46.141Z,1010.21
2018-05-12T07:19:46.159Z,1010.14
2018-05-12T07:21:39.039Z,1010.13
2018-05-12T07:22:39.075Z,1010.14
2018-05-12T07:24:32.047Z,1010.18
2018-05-12T07:25:31.981Z,1010.16
2018-05-12T07:27:25.135Z,1010.17
2018-05-12T07:28:25.416Z,1010.14
2018-05-12T07:30:19.755Z,1010.13
2018-05-12T07:31:18.799Z,1010.15
2018-05-12T07:33:11.628Z,1010.16
2018-05-12T07:34:11.663Z,1010.14
2018-05-12T07:36:04.601Z,1010.16
2018-05-12T07:37:06.074Z,1010.15
2018-05-12T07:38:58.066Z,1010.14
2018-05-12T07:39:57.656Z,1010.15
2018-05-12T07:41:51.462Z,1010.12
2018-05-12T07:42:51.304Z,1010.12
2018-05-12T07:44:44.754Z,1010.14
2018-05-12T07:45:45.793Z,1010.10
2018-05-12T07:47:37.762Z,1010.10
2018-05-12T07:48:37.736Z,1010.10
2018-05-12T07:50:30.663Z,1010.11
2018-05-12T07:51:30.701Z,1010.11
2018-05-12T07:53:24.066Z,1010.10
2018-05-12T07:54:23.980Z,1010.06
2018-05-12T07:56:17.821Z,1010.03
2018-05-12T07:57:17.447Z,1010.04
2018-05-12T07:59:10.583Z,1010.04
2018-05-12T08:00:10.478Z,1009.99
2018-05-12T08:02:04.216Z,1009.97
2018-05-12T08:03:03.929Z,1009.97
2018-05-12T08:04:57.713Z,1009.93
2018-05-12T08:05:57.742Z,1009.91
2018-05-12T08:07:51.797Z,1009.97
2018-05-12T08:08:51.645Z,1009.95
2018-05-12T08:10:46.840Z,1009.92
2018-05-12T08:11:44.984Z,1009.94
2018-05-12T08:13:38.462Z,1009.89
2018-05-12T08:14:38.394Z,1009.89
2018-05-12T08:16:32.167Z,1009.86
2018-05-12T08:17:31.816Z,1009.87
2018-05-12T08:19:25.736Z,1009.83
2018-05-12T08:20:25.005Z,1009.85
2018-05-12T08:22:20.065Z,1009.86
2018-05-12T08:23:18.414Z,1009.82
2018-05-12T08:25:12.482Z,1009.81
2018-05-12T08:26:11.610Z,1009.84
2018-05-12T08:28:05.331Z,1009.85
2018-05-12T08:29:04.970Z,1009.81
2018-05-12T08:30:58.710Z,1009.83
2018-05-12T08:31:58.806Z,1009.82
2018-05-12T08:34:05.916Z,1009.80
2018-05-12T08:34:52.754Z,1009.81
2018-05-12T08:36:44.721Z,1009.81
2018-05-12T08:37:45.191Z,1009.77
2018-05-12T08:39:38.089Z,1009.75
2018-05-12T08:40:37.725Z,1009.73
2018-05-12T08:42:31.445Z,1009.71
2018-05-12T08:43:31.075Z,1009.70
2018-05-12T08:45:23.928Z,1009.65
2018-05-12T08:46:23.931Z,1009.68
2018-05-12T08:48:17.386Z,1009.64
2018-05-12T08:49:16.928Z,1009.65
2018-05-12T08:51:10.503Z,1009.59
2018-05-12T08:52:09.818Z,1009.63
2018-05-12T08:54:03.235Z,1009.57
2018-05-12T08:55:03.208Z,1009.57
2018-05-12T08:56:56.334Z,1009.49
2018-05-12T08:57:56.134Z,1009.57
2018-05-12T08:59:49.269Z,1009.51
2018-05-12T09:00:49.032Z,1009.48
2018-05-12T09:02:42.172Z,1009.48
2018-05-12T09:03:41.945Z,1009.49
2018-05-12T09:05:34.848Z,1009.46
2018-05-12T09:06:34.814Z,1009.42
2018-05-12T09:08:27.704Z,1009.45
2018-05-12T09:09:27.730Z,1009.43
2018-05-12T09:11:20.836Z,1009.45
2018-05-12T09:12:20.586Z,1009.48
2018-05-12T09:14:13.512Z,1009.44
2018-05-12T09:15:13.493Z,1009.44
2018-05-12T09:17:07.122Z,1009.44
2018-05-12T09:18:06.885Z,1009.40
2018-05-12T09:20:00.522Z,1009.39
2018-05-12T09:21:00.264Z,1009.35
2018-05-12T09:22:53.918Z,1009.35
2018-05-12T09:23:53.693Z,1009.31
2018-05-12T09:25:47.138Z,1009.36
2018-05-12T09:26:47.022Z,1009.36
2018-05-12T09:28:40.454Z,1009.39
2018-05-12T09:29:40.419Z,1009.37
2018-05-12T09:31:34.092Z,1009.37
2018-05-12T09:32:33.815Z,1009.33
2018-05-12T09:34:26.927Z,1009.27
2018-05-12T09:35:26.711Z,1009.23
2018-05-12T09:37:20.486Z,1009.30
2018-05-12T09:38:19.606Z,1009.30
2018-05-12T09:40:13.009Z,1009.27
2018-05-12T09:41:12.975Z,1009.24
2018-05-12T09:43:06.136Z,1009.22
2018-05-12T09:44:05.888Z,1009.20
2018-05-12T09:45:59.049Z,1009.21
2018-05-12T09:46:58.781Z,1009.19
2018-05-12T09:48:51.717Z,1009.19
2018-05-12T09:49:51.664Z,1009.15
2018-05-12T09:51:45.343Z,1009.16
2018-05-12T09:52:45.063Z,1009.15
2018-05-12T09:54:37.968Z,1009.11
2018-05-12T09:55:37.937Z,1009.09
2018-05-12T09:57:31.971Z,1009.11
2018-05-12T09:58:31.418Z,1009.05
2018-05-12T10:00:24.806Z,1009.01
2018-05-12T10:01:24.745Z,1009.02
2018-05-12T10:03:18.692Z,1009.00
2018-05-12T10:04:18.121Z,1009.01
2018-05-12T10:06:11.513Z,1009.00
2018-05-12T10:07:11.506Z,1008.99
2018-05-12T10:09:04.726Z,1008.94
2018-05-12T10:10:04.400Z,1008.97
2018-05-12T10:11:57.621Z,1008.94
2018-05-12T10:12:57.315Z,1008.95
2018-05-12T10:14:50.462Z,1008.86
2018-05-12T10:15:50.243Z,1008.88
2018-05-12T10:17:43.602Z,1008.88
2018-05-12T10:18:43.915Z,1008.90
2018-05-12T10:20:36.512Z,1008.87
2018-05-12T10:21:36.497Z,1008.87
2018-05-12T10:23:29.726Z,1008.86
2018-05-12T10:24:29.364Z,1008.79
2018-05-12T10:26:22.561Z,1008.82
2018-05-12T10:27:22.273Z,1008.79
2018-05-12T10:29:15.667Z,1008.71
2018-05-12T10:30:15.643Z,1008.70
2018-05-12T10:32:08.557Z,1008.68
2018-05-12T10:33:08.547Z,1008.65
2018-05-12T10:35:02.979Z,1008.64
2018-05-12T10:36:02.928Z,1008.67
2018-05-12T10:37:56.123Z,1008.69
2018-05-12T10:38:55.823Z,1008.60
2018-05-12T10:40:48.850Z,1008.64
2018-05-12T10:41:48.739Z,1008.64
2018-05-12T10:43:41.904Z,1008.60
2018-05-12T10:44:41.658Z,1008.63
2018-05-12T10:46:35.264Z,1008.61
2018-05-12T10:47:34.979Z,1008.60
2018-05-12T10:49:28.454Z,1008.57
2018-05-12T10:50:28.381Z,1008.56
2018-05-12T10:52:22.130Z,1008.52
2018-05-12T10:53:21.259Z,1008.55
2018-05-12T10:55:14.785Z,1008.47
2018-05-12T10:56:14.138Z,1008.47
2018-05-12T10:58:07.551Z,1008.41
2018-05-12T10:59:07.771Z,1008.37
2018-05-12T11:01:00.625Z,1008.37
2018-05-12T11:02:00.476Z,1008.35
2018-05-12T11:03:54.388Z,1008.33
2018-05-12T11:04:53.795Z,1008.37
2018-05-12T11:06:47.028Z,1008.32
2018-05-12T11:07:46.743Z,1008.36
2018-05-12T11:09:39.628Z,1008.31
2018-05-12T11:10:39.603Z,1008.22
2018-05-12T11:12:32.783Z,1008.21
2018-05-12T11:13:32.501Z,1008.23
2018-05-12T11:15:26.180Z,1008.23
2018-05-12T11:16:25.916Z,1008.20
2018-05-12T11:18:18.841Z,1008.16
2018-05-12T11:19:18.766Z,1008.19
2018-05-12T11:21:11.948Z,1008.17
2018-05-12T11:22:11.685Z,1008.19
2018-05-12T11:24:05.303Z,1008.14
2018-05-12T11:25:05.034Z,1008.11
2018-05-12T11:26:58.210Z,1008.09
2018-05-12T11:27:57.937Z,1008.04
2018-05-12T11:29:51.360Z,1008.01
2018-05-12T11:30:51.357Z,1008.03
2018-05-12T11:32:45.007Z,1008.00
2018-05-12T11:33:44.724Z,1007.96
2018-05-12T11:35:38.357Z,1007.99
2018-05-12T11:36:38.108Z,1007.95
2018-05-12T11:38:31.782Z,1007.89
2018-05-12T11:39:31.501Z,1007.89
2018-05-12T11:41:24.900Z,1007.87
2018-05-12T11:42:25.074Z,1007.86
2018-05-12T11:44:18.059Z,1007.88
2018-05-12T11:45:17.757Z,1007.84
2018-05-12T11:47:10.883Z,1007.78
2018-05-12T11:48:10.652Z,1007.81
2018-05-12T11:50:03.552Z,1007.81
2018-05-12T11:51:03.554Z,1007.82
2018-05-12T11:52:56.732Z,1007.77
2018-05-12T11:53:56.449Z,1007.74
2018-05-12T11:55:49.602Z,1007.71
2018-05-12T11:56:49.403Z,1007.72
2018-05-12T11:58:42.245Z,1007.71
2018-05-12T11:59:42.208Z,1007.71
2018-05-12T12:01:35.828Z,1007.69
2018-05-12T12:02:35.659Z,1007.67
2018-05-12T12:04:28.733Z,1007.69
2018-05-12T12:05:28.503Z,1007.65
2018-05-12T12:07:21.883Z,1007.64
2018-05-12T12:08:21.857Z,1007.69
2018-05-12T12:10:15.627Z,1007.62
2018-05-12T12:11:14.749Z,1007.58
2018-05-12T12:13:07.971Z,1007.58
2018-05-12T12:14:07.686Z,1007.68
2018-05-12T12:16:01.070Z,1007.64
2018-05-12T12:17:01.043Z,1007.64
2018-05-12T12:18:54.441Z,1007.61
2018-05-12T12:19:54.421Z,1007.61
2018-05-12T12:21:47.587Z,1007.56
2018-05-12T12:22:47.297Z,1007.54
2018-05-12T12:24:40.465Z,1007.56
2018-05-12T12:25:40.217Z,1007.59
2018-05-12T12:27:33.848Z,1007.55
2018-05-12T12:28:33.571Z,1007.56
2018-05-12T12:30:26.851Z,1007.52
2018-05-12T12:31:26.461Z,1007.48
2018-05-12T12:33:19.665Z,1007.50
2018-05-12T12:34:19.406Z,1007.48
2018-05-12T12:36:12.786Z,1007.50
2018-05-12T12:37:12.760Z,1007.46
2018-05-12T12:39:05.966Z,1007.47
2018-05-12T12:40:05.660Z,1007.47
2018-05-12T12:41:59.032Z,1007.42
2018-05-12T12:42:59.019Z,1007.41
2018-05-12T12:44:52.155Z,1007.39
2018-05-12T12:45:51.929Z,1007.44
2018-05-12T12:47:45.038Z,1007.37
2018-05-12T12:48:44.864Z,1007.36
2018-05-12T12:50:38.269Z,1007.32
2018-05-12T12:51:37.763Z,1007.31
2018-05-12T12:53:30.595Z,1007.33
2018-05-12T12:54:30.589Z,1007.30
2018-05-12T12:56:24.117Z,1007.28
2018-05-12T12:57:23.964Z,1007.28
2018-05-12T12:59:16.868Z,1007.23
2018-05-12T13:00:16.848Z,1007.22
2018-05-12T13:02:10.576Z,1007.21
2018-05-12T13:03:10.239Z,1007.20
2018-05-12T13:05:03.650Z,1007.19
2018-05-12T13:06:03.606Z,1007.22
2018-05-12T13:07:57.217Z,1007.21
2018-05-12T13:08:56.989Z,1007.16
2018-05-12T13:10:50.160Z,1007.14
2018-05-12T13:11:49.903Z,1007.12
2018-05-12T13:13:42.842Z,1007.11
2018-05-12T13:14:42.778Z,1007.09
2018-05-12T13:16:35.677Z,1007.10
2018-05-12T13:17:35.670Z,1007.06
2018-05-12T13:19:28.791Z,1007.08
2018-05-12T13:20:28.572Z,1007.07
2018-05-12T13:22:21.730Z,1007.05
2018-05-12T13:23:21.444Z,1007.02
2018-05-12T13:25:14.422Z,1006.97
2018-05-12T13:26:14.321Z,1006.98
2018-05-12T13:28:07.401Z,1006.89
2018-05-12T13:29:07.219Z,1006.90
2018-05-12T13:31:00.145Z,1006.90
2018-05-12T13:32:00.682Z,1006.84
2018-05-12T13:33:53.022Z,1006.82
2018-05-12T13:34:53.002Z,1006.82
2018-05-12T13:36:46.102Z,1006.82
2018-05-12T13:37:45.889Z,1006.82
2018-05-12T13:39:39.055Z,1006.78
2018-05-12T13:40:38.769Z,1006.76
2018-05-12T13:42:31.970Z,1006.73
2018-05-12T13:43:31.665Z,1006.73
2018-05-12T13:45:24.860Z,1006.72
2018-05-12T13:46:24.563Z,1006.71
2018-05-12T13:48:17.463Z,1006.65
2018-05-12T13:49:17.452Z,1006.71
2018-05-12T13:51:11.141Z,1006.65
2018-05-12T13:52:10.844Z,1006.67
2018-05-12T13:54:04.240Z,1006.67
2018-05-12T13:55:04.223Z,1006.64
2018-05-12T13:56:57.692Z,1006.64
2018-05-12T13:57:57.104Z,1006.60
2018-05-12T13:59:50.534Z,1006.57
2018-05-12T14:00:50.494Z,1006.54
2018-05-12T14:02:44.156Z,1006.51
2018-05-12T14:03:43.880Z,1006.52
2018-05-12T14:05:37.288Z,1006.52
2018-05-12T14:06:37.547Z,1006.45
2018-05-12T14:08:30.435Z,1006.51
2018-05-12T14:09:30.147Z,1006.45
2018-05-12T14:11:23.790Z,1006.45
2018-05-12T14:12:23.548Z,1006.44
2018-05-12T14:14:17.282Z,1006.45
2018-05-12T14:15:16.989Z,1006.44
2018-05-12T14:17:10.063Z,1006.41
2018-05-12T14:18:09.851Z,1006.43
2018-05-12T14:20:02.988Z,1006.41
2018-05-12T14:21:02.690Z,1006.43
2018-05-12T14:22:56.103Z,1006.46
2018-05-12T14:23:56.077Z,1006.40
2018-05-12T14:25:49.041Z,1006.37
2018-05-12T14:26:49.201Z,1006.39
2018-05-12T14:28:43.227Z,1006.38
2018-05-12T14:29:42.361Z,1006.43
2018-05-12T14:31:36.019Z,1006.34
2018-05-12T14:32:35.754Z,1006.35
2018-05-12T14:34:28.729Z,1006.32
2018-05-12T14:35:28.643Z,1006.28
2018-05-12T14:37:21.787Z,1006.29
2018-05-12T14:38:21.838Z,1006.21
2018-05-12T14:40:15.047Z,1006.24
2018-05-12T14:41:14.413Z,1006.24
2018-05-12T14:43:08.087Z,1006.20
2018-05-12T14:44:07.818Z,1006.22
2018-05-12T14:46:01.277Z,1006.17
2018-05-12T14:47:00.741Z,1006.18
2018-05-12T14:48:54.165Z,1006.19
2018-05-12T14:49:54.107Z,1006.17
2018-05-12T14:51:47.242Z,1006.10
2018-05-12T14:52:46.993Z,1006.12
2018-05-12T14:54:40.616Z,1006.09
2018-05-12T14:55:40.371Z,1006.11
2018-05-12T14:57:33.505Z,1006.09
2018-05-12T14:58:33.285Z,1006.10
2018-05-12T15:00:26.911Z,1006.11
2018-05-12T15:01:26.614Z,1006.09
2018-05-12T15:03:19.701Z,1006.07
2018-05-12T15:04:19.623Z,1006.07
2018-05-12T15:06:12.787Z,1006.01
2018-05-12T15:07:12.519Z,1006.03
2018-05-12T15:09:05.444Z,1006.04
2018-05-12T15:10:05.447Z,1006.03
2018-05-12T15:11:58.601Z,1005.96
2018-05-12T15:12:58.313Z,1005.93
2018-05-12T15:14:51.492Z,1005.93
2018-05-12T15:15:51.238Z,1005.90
2018-05-12T15:17:44.913Z,1005.89
2018-05-12T15:18:44.576Z,1005.90
2018-05-12T15:20:38.282Z,1005.85
2018-05-12T15:21:37.991Z,1005.84
2018-05-12T15:23:31.628Z,1005.84
2018-05-12T15:24:31.366Z,1005.85
2018-05-12T15:26:24.800Z,1005.81
2018-05-12T15:27:24.751Z,1005.77
2018-05-12T15:29:17.657Z,1005.72
2018-05-12T15:30:17.647Z,1005.72
2018-05-12T15:32:11.056Z,1005.70
2018-05-12T15:33:11.026Z,1005.67
2018-05-12T15:35:04.691Z,1005.64
2018-05-12T15:36:04.395Z,1005.62
2018-05-12T15:37:57.591Z,1005.62
2018-05-12T15:38:57.304Z,1005.60
2018-05-12T15:40:50.964Z,1005.58
2018-05-12T15:41:50.665Z,1005.56
2018-05-12T15:43:43.960Z,1005.53
2018-05-12T15:44:43.590Z,1005.52
2018-05-12T15:46:37.310Z,1005.45
2018-05-12T15:47:37.310Z,1005.47
2018-05-12T15:49:31.088Z,1005.48
2018-05-12T15:50:30.717Z,1005.47
2018-05-12T15:52:24.702Z,1005.48
2018-05-12T15:53:23.601Z,1005.48
2018-05-12T15:55:17.044Z,1005.49
2018-05-12T15:56:16.963Z,1005.46
2018-05-12T15:58:09.891Z,1005.44
2018-05-12T15:59:09.862Z,1005.43
2018-05-12T16:01:03.496Z,1005.44
2018-05-12T16:02:03.247Z,1005.42
2018-05-12T16:03:56.653Z,1005.41
2018-05-12T16:04:56.809Z,1005.37
2018-05-12T16:06:49.708Z,1005.32
2018-05-12T16:07:49.517Z,1005.35
2018-05-12T16:09:42.480Z,1005.31
2018-05-12T16:10:42.402Z,1005.30
2018-05-12T16:12:35.478Z,1005.29
2018-05-12T16:13:35.304Z,1005.28
2018-05-12T16:15:28.523Z,1005.23
2018-05-12T16:16:28.485Z,1005.24
2018-05-12T16:18:21.711Z,1005.19
2018-05-12T16:19:21.364Z,1005.17
2018-05-12T16:21:14.784Z,1005.13
2018-05-12T16:22:14.738Z,1005.15
2018-05-12T16:24:07.729Z,1005.13
2018-05-12T16:25:07.648Z,1005.07
2018-05-12T16:27:01.251Z,1005.04
2018-05-12T16:28:01.047Z,1005.03
2018-05-12T16:29:54.417Z,1005.07
2018-05-12T16:30:54.407Z,1005.08
2018-05-12T16:32:48.079Z,1005.07
2018-05-12T16:33:47.808Z,1005.04
2018-05-12T16:35:40.979Z,1005.05
2018-05-12T16:36:40.698Z,1005.02
2018-05-12T16:38:33.603Z,1004.99
2018-05-12T16:39:33.610Z,1004.98
2018-05-12T16:41:26.522Z,1004.94
2018-05-12T16:42:26.493Z,1004.94
2018-05-12T16:44:19.415Z,1004.90
2018-05-12T16:45:19.405Z,1004.93
2018-05-12T16:47:12.532Z,1004.88
2018-05-12T16:48:12.312Z,1004.89
2018-05-12T16:50:05.514Z,1004.84
2018-05-12T16:51:05.258Z,1004.83
2018-05-12T16:52:58.592Z,1004.83
2018-05-12T16:53:58.660Z,1004.82
2018-05-12T16:55:51.446Z,1004.83
2018-05-12T16:56:51.395Z,1004.81
2018-05-12T16:58:45.127Z,1004.85
2018-05-12T16:59:45.014Z,1004.85
2018-05-12T17:01:38.796Z,1004.76
2018-05-12T17:02:37.889Z,1004.76
2018-05-12T17:04:30.984Z,1004.77
2018-05-12T17:05:30.885Z,1004.74
2018-05-12T17:07:24.603Z,1004.75
2018-05-12T17:08:24.594Z,1004.70
2018-05-12T17:10:22.715Z,1004.76
2018-05-12T17:11:21.226Z,1004.75
2018-05-12T17:13:13.086Z,1004.76
2018-05-12T17:14:12.852Z,1004.83
2018-05-12T17:16:04.661Z,1004.73
2018-05-12T17:17:04.353Z,1004.75
2018-05-12T17:18:57.585Z,1004.72
2018-05-12T17:19:57.649Z,1004.73
2018-05-12T17:21:51.602Z,1004.74
2018-05-12T17:22:51.384Z,1004.75
2018-05-12T17:24:45.581Z,1004.70
2018-05-12T17:25:44.131Z,1004.72
2018-05-12T17:27:59.757Z,1004.72